sensor_id;sensor_type;location;lat;lon;timestamp;temperature;humidity
4279;DHT22;2153;47.744;10.580;2022-07-21T00:01:10;19.90;99.90
4279;DHT22;2153;47.744;10.580;2022-07-21T00:03:37;19.90;99.90
4279;DHT22;2153;47.744;10.580;2022-07-21T00:06:04;20.00;99.90
4279;DHT22;2153;47.744;10.580;2022-07-21T00:08:31;20.00;99.90
4279;DHT22;2153;47.744;10.580;2022-07-21T00:10:58;19.90;99.90
4279;DHT22;2153;47.744;10.580;2022-07-21T00:13:25;19.90;99.90
4279;DHT22;2153;47.744;10.580;2022-07-21T00:15:53;19.70;99.90
4279;DHT22;2153;47.744;10.580;2022-07-21T00:18:21;19.70;99.90
4279;DHT22;2153;47.744;10.580;2022-07-21T00:20:48;19.70;99.90
4279;DHT22;2153;47.744;10.580;2022-07-21T00:23:14;19.50;99.90
4279;DHT22;2153;47.744;10.580;2022-07-21T00:25:41;19.50;99.90
4279;DHT22;2153;47.744;10.580;2022-07-21T00:28:08;19.50;99.90
4279;DHT22;2153;47.744;10.580;2022-07-21T00:30:35;19.60;99.90
4279;DHT22;2153;47.744;10.580;2022-07-21T00:33:03;19.70;99.90
4279;DHT22;2153;47.744;10.580;2022-07-21T00:35:30;19.70;99.90
4279;DHT22;2153;47.744;10.580;2022-07-21T00:37:56;19.80;99.90
4279;DHT22;2153;47.744;10.580;2022-07-21T00:40:24;19.80;99.90
4279;DHT22;2153;47.744;10.580;2022-07-21T00:42:50;19.80;99.90
4279;DHT22;2153;47.744;10.580;2022-07-21T00:45:17;19.80;99.90
4279;DHT22;2153;47.744;10.580;2022-07-21T00:47:44;19.80;99.90
4279;DHT22;2153;47.744;10.580;2022-07-21T00:50:14;19.70;99.90
4279;DHT22;2153;47.744;10.580;2022-07-21T00:52:41;19.70;99.90
4279;DHT22;2153;47.744;10.580;2022-07-21T00:55:11;19.80;99.90
4279;DHT22;2153;47.744;10.580;2022-07-21T00:57:39;19.80;99.90
4279;DHT22;2153;47.744;10.580;2022-07-21T01:00:08;19.70;99.90
4279;DHT22;2153;47.744;10.580;2022-07-21T01:02:35;19.60;99.90
4279;DHT22;2153;47.744;10.580;2022-07-21T01:05:03;19.50;99.90
4279;DHT22;2153;47.744;10.580;2022-07-21T01:07:31;19.50;99.90
4279;DHT22;2153;47.744;10.580;2022-07-21T01:09:58;19.40;99.90
4279;DHT22;2153;47.744;10.580;2022-07-21T01:12:25;19.40;99.90
4279;DHT22;2153;47.744;10.580;2022-07-21T01:14:52;19.40;99.90
4279;DHT22;2153;47.744;10.580;2022-07-21T01:17:19;19.40;99.90
4279;DHT22;2153;47.744;10.580;2022-07-21T01:19:46;19.40;99.90
4279;DHT22;2153;47.744;10.580;2022-07-21T01:22:14;19.30;99.90
4279;DHT22;2153;47.744;10.580;2022-07-21T01:24:41;19.40;99.90
4279;DHT22;2153;47.744;10.580;2022-07-21T01:27:08;19.30;99.90
4279;DHT22;2153;47.744;10.580;2022-07-21T01:29:35;19.30;99.90
4279;DHT22;2153;47.744;10.580;2022-07-21T01:32:02;19.30;99.90
4279;DHT22;2153;47.744;10.580;2022-07-21T01:34:29;19.20;99.90
4279;DHT22;2153;47.744;10.580;2022-07-21T01:36:56;19.10;99.90
4279;DHT22;2153;47.744;10.580;2022-07-21T01:39:24;19.00;99.90
4279;DHT22;2153;47.744;10.580;2022-07-21T01:42:09;19.00;99.90
4279;DHT22;2153;47.744;10.580;2022-07-21T01:44:35;19.00;99.90
4279;DHT22;2153;47.744;10.580;2022-07-21T01:47:02;19.00;99.90
4279;DHT22;2153;47.744;10.580;2022-07-21T01:49:29;18.90;99.90
4279;DHT22;2153;47.744;10.580;2022-07-21T01:51:56;18.90;99.90
4279;DHT22;2153;47.744;10.580;2022-07-21T01:54:24;18.80;99.90
4279;DHT22;2153;47.744;10.580;2022-07-21T01:56:50;18.80;99.90
4279;DHT22;2153;47.744;10.580;2022-07-21T01:59:18;18.80;99.90
4279;DHT22;2153;47.744;10.580;2022-07-21T02:01:45;18.80;99.90
4279;DHT22;2153;47.744;10.580;2022-07-21T02:04:12;18.80;99.90
4279;DHT22;2153;47.744;10.580;2022-07-21T02:06:39;18.80;99.90
4279;DHT22;2153;47.744;10.580;2022-07-21T02:09:05;18.80;99.90
4279;DHT22;2153;47.744;10.580;2022-07-21T02:11:35;18.80;99.90
4279;DHT22;2153;47.744;10.580;2022-07-21T02:14:02;18.80;99.90
4279;DHT22;2153;47.744;10.580;2022-07-21T02:16:29;18.80;99.90
4279;DHT22;2153;47.744;10.580;2022-07-21T02:18:56;18.80;99.90
4279;DHT22;2153;47.744;10.580;2022-07-21T02:21:23;18.80;99.90
4279;DHT22;2153;47.744;10.580;2022-07-21T02:23:50;18.70;99.90
4279;DHT22;2153;47.744;10.580;2022-07-21T02:26:16;18.70;99.90
4279;DHT22;2153;47.744;10.580;2022-07-21T02:28:45;18.80;99.90
4279;DHT22;2153;47.744;10.580;2022-07-21T02:31:11;18.70;99.90
4279;DHT22;2153;47.744;10.580;2022-07-21T02:33:38;18.70;99.90
4279;DHT22;2153;47.744;10.580;2022-07-21T02:36:06;18.70;99.90
4279;DHT22;2153;47.744;10.580;2022-07-21T02:38:33;18.60;99.90
4279;DHT22;2153;47.744;10.580;2022-07-21T02:41:00;18.60;99.90
4279;DHT22;2153;47.744;10.580;2022-07-21T02:43:26;18.50;99.90
4279;DHT22;2153;47.744;10.580;2022-07-21T02:45:54;18.50;99.90
4279;DHT22;2153;47.744;10.580;2022-07-21T02:48:21;18.50;99.90
4279;DHT22;2153;47.744;10.580;2022-07-21T02:50:48;18.50;99.90
4279;DHT22;2153;47.744;10.580;2022-07-21T02:53:17;18.50;99.90
4279;DHT22;2153;47.744;10.580;2022-07-21T02:55:45;18.50;99.90
4279;DHT22;2153;47.744;10.580;2022-07-21T02:58:14;18.50;99.90
4279;DHT22;2153;47.744;10.580;2022-07-21T03:00:43;18.50;99.90
4279;DHT22;2153;47.744;10.580;2022-07-21T03:03:12;18.40;99.90
4279;DHT22;2153;47.744;10.580;2022-07-21T03:05:39;18.40;99.90
4279;DHT22;2153;47.744;10.580;2022-07-21T03:08:06;18.40;99.90
4279;DHT22;2153;47.744;10.580;2022-07-21T03:10:34;18.30;99.90
4279;DHT22;2153;47.744;10.580;2022-07-21T03:13:01;18.20;99.90
4279;DHT22;2153;47.744;10.580;2022-07-21T03:15:28;18.20;99.90
4279;DHT22;2153;47.744;10.580;2022-07-21T03:17:55;18.20;99.90
4279;DHT22;2153;47.744;10.580;2022-07-21T03:20:24;18.20;99.90
4279;DHT22;2153;47.744;10.580;2022-07-21T03:22:51;18.30;99.90
4279;DHT22;2153;47.744;10.580;2022-07-21T03:25:18;18.30;99.90
4279;DHT22;2153;47.744;10.580;2022-07-21T03:27:45;18.30;99.90
4279;DHT22;2153;47.744;10.580;2022-07-21T03:30:13;18.30;99.90
4279;DHT22;2153;47.744;10.580;2022-07-21T03:32:40;18.30;99.90
4279;DHT22;2153;47.744;10.580;2022-07-21T03:35:08;18.20;99.90
4279;DHT22;2153;47.744;10.580;2022-07-21T03:37:42;18.20;99.90
4279;DHT22;2153;47.744;10.580;2022-07-21T03:40:10;18.20;99.90
4279;DHT22;2153;47.744;10.580;2022-07-21T03:42:37;18.20;99.90
4279;DHT22;2153;47.744;10.580;2022-07-21T03:45:05;18.20;99.90
4279;DHT22;2153;47.744;10.580;2022-07-21T03:47:32;18.20;99.90
4279;DHT22;2153;47.744;10.580;2022-07-21T03:49:59;18.20;99.90
4279;DHT22;2153;47.744;10.580;2022-07-21T03:52:25;18.20;99.90
4279;DHT22;2153;47.744;10.580;2022-07-21T03:54:53;18.20;99.90
4279;DHT22;2153;47.744;10.580;2022-07-21T03:57:35;18.10;99.90
4279;DHT22;2153;47.744;10.580;2022-07-21T04:00:02;18.10;99.90
4279;DHT22;2153;47.744;10.580;2022-07-21T04:02:29;18.10;99.90
4279;DHT22;2153;47.744;10.580;2022-07-21T04:04:56;18.10;99.90
4279;DHT22;2153;47.744;10.580;2022-07-21T04:07:23;18.10;99.90
4279;DHT22;2153;47.744;10.580;2022-07-21T04:09:49;18.10;99.90
4279;DHT22;2153;47.744;10.580;2022-07-21T04:12:18;18.10;99.90
4279;DHT22;2153;47.744;10.580;2022-07-21T04:14:44;18.10;99.90
4279;DHT22;2153;47.744;10.580;2022-07-21T04:17:11;18.10;99.90
4279;DHT22;2153;47.744;10.580;2022-07-21T04:19:38;18.10;99.90
4279;DHT22;2153;47.744;10.580;2022-07-21T04:22:05;18.10;99.90
4279;DHT22;2153;47.744;10.580;2022-07-21T04:24:31;18.10;99.90
4279;DHT22;2153;47.744;10.580;2022-07-21T04:26:58;18.10;99.90
4279;DHT22;2153;47.744;10.580;2022-07-21T04:29:26;18.20;99.90
4279;DHT22;2153;47.744;10.580;2022-07-21T04:31:54;18.20;99.90
4279;DHT22;2153;47.744;10.580;2022-07-21T04:34:21;18.20;99.90
4279;DHT22;2153;47.744;10.580;2022-07-21T04:36:47;18.30;99.90
4279;DHT22;2153;47.744;10.580;2022-07-21T04:39:14;18.40;99.90
4279;DHT22;2153;47.744;10.580;2022-07-21T04:41:41;18.40;99.90
4279;DHT22;2153;47.744;10.580;2022-07-21T04:44:08;18.50;99.90
4279;DHT22;2153;47.744;10.580;2022-07-21T04:46:36;18.50;99.90
4279;DHT22;2153;47.744;10.580;2022-07-21T04:49:02;18.60;99.90
4279;DHT22;2153;47.744;10.580;2022-07-21T04:51:29;18.60;99.90
4279;DHT22;2153;47.744;10.580;2022-07-21T04:53:56;18.70;99.90
4279;DHT22;2153;47.744;10.580;2022-07-21T04:56:23;18.80;99.90
4279;DHT22;2153;47.744;10.580;2022-07-21T04:58:50;19.00;99.90
4279;DHT22;2153;47.744;10.580;2022-07-21T05:01:16;19.00;99.90
4279;DHT22;2153;47.744;10.580;2022-07-21T05:03:45;19.20;99.90
4279;DHT22;2153;47.744;10.580;2022-07-21T05:06:12;19.40;99.90
4279;DHT22;2153;47.744;10.580;2022-07-21T05:08:39;19.50;99.90
4279;DHT22;2153;47.744;10.580;2022-07-21T05:11:06;19.60;99.90
4279;DHT22;2153;47.744;10.580;2022-07-21T05:13:32;19.80;99.90
4279;DHT22;2153;47.744;10.580;2022-07-21T05:15:59;19.80;99.90
4279;DHT22;2153;47.744;10.580;2022-07-21T05:18:26;19.90;99.90
4279;DHT22;2153;47.744;10.580;2022-07-21T05:20:54;19.90;99.90
4279;DHT22;2153;47.744;10.580;2022-07-21T05:23:21;19.90;99.90
4279;DHT22;2153;47.744;10.580;2022-07-21T05:25:48;19.90;99.90
4279;DHT22;2153;47.744;10.580;2022-07-21T05:28:14;19.90;99.90
4279;DHT22;2153;47.744;10.580;2022-07-21T05:30:41;19.90;99.90
4279;DHT22;2153;47.744;10.580;2022-07-21T05:33:08;19.90;99.90
4279;DHT22;2153;47.744;10.580;2022-07-21T05:35:35;19.90;99.90
4279;DHT22;2153;47.744;10.580;2022-07-21T05:38:03;20.00;99.90
4279;DHT22;2153;47.744;10.580;2022-07-21T05:40:30;20.00;99.90
4279;DHT22;2153;47.744;10.580;2022-07-21T05:42:57;20.00;99.90
4279;DHT22;2153;47.744;10.580;2022-07-21T05:45:24;20.00;99.90
4279;DHT22;2153;47.744;10.580;2022-07-21T05:47:51;20.10;99.90
4279;DHT22;2153;47.744;10.580;2022-07-21T05:50:17;20.30;99.90
4279;DHT22;2153;47.744;10.580;2022-07-21T05:52:44;20.30;99.90
4279;DHT22;2153;47.744;10.580;2022-07-21T05:55:12;20.50;99.90
4279;DHT22;2153;47.744;10.580;2022-07-21T05:57:39;20.50;99.90
4279;DHT22;2153;47.744;10.580;2022-07-21T06:00:07;20.50;99.90
4279;DHT22;2153;47.744;10.580;2022-07-21T06:02:34;20.40;99.90
4279;DHT22;2153;47.744;10.580;2022-07-21T06:05:01;20.30;99.90
4279;DHT22;2153;47.744;10.580;2022-07-21T06:07:28;20.30;99.90
4279;DHT22;2153;47.744;10.580;2022-07-21T06:09:55;20.30;99.90
4279;DHT22;2153;47.744;10.580;2022-07-21T06:12:23;20.30;99.90
4279;DHT22;2153;47.744;10.580;2022-07-21T06:14:50;20.20;99.90
4279;DHT22;2153;47.744;10.580;2022-07-21T06:17:16;20.10;99.90
4279;DHT22;2153;47.744;10.580;2022-07-21T06:19:43;20.10;99.90
4279;DHT22;2153;47.744;10.580;2022-07-21T06:22:10;20.10;99.90
4279;DHT22;2153;47.744;10.580;2022-07-21T06:24:37;20.10;99.90
4279;DHT22;2153;47.744;10.580;2022-07-21T06:27:04;20.20;99.90
4279;DHT22;2153;47.744;10.580;2022-07-21T06:29:32;20.10;99.90
4279;DHT22;2153;47.744;10.580;2022-07-21T06:31:59;20.10;99.90
4279;DHT22;2153;47.744;10.580;2022-07-21T06:34:26;20.10;99.90
4279;DHT22;2153;47.744;10.580;2022-07-21T06:36:52;20.10;99.90
4279;DHT22;2153;47.744;10.580;2022-07-21T06:39:19;20.20;99.90
4279;DHT22;2153;47.744;10.580;2022-07-21T06:41:46;20.20;99.90
4279;DHT22;2153;47.744;10.580;2022-07-21T06:44:13;20.20;99.90
4279;DHT22;2153;47.744;10.580;2022-07-21T06:46:41;20.10;99.90
4279;DHT22;2153;47.744;10.580;2022-07-21T06:49:08;20.10;99.90
4279;DHT22;2153;47.744;10.580;2022-07-21T06:51:34;20.00;99.90
4279;DHT22;2153;47.744;10.580;2022-07-21T06:54:01;20.10;99.90
4279;DHT22;2153;47.744;10.580;2022-07-21T06:56:28;20.00;99.90
4279;DHT22;2153;47.744;10.580;2022-07-21T06:58:55;20.00;99.90
4279;DHT22;2153;47.744;10.580;2022-07-21T07:01:21;19.90;99.90
4279;DHT22;2153;47.744;10.580;2022-07-21T07:03:49;19.90;99.90
4279;DHT22;2153;47.744;10.580;2022-07-21T07:06:16;19.80;99.90
4279;DHT22;2153;47.744;10.580;2022-07-21T07:08:43;19.80;99.90
4279;DHT22;2153;47.744;10.580;2022-07-21T07:11:10;19.80;99.90
4279;DHT22;2153;47.744;10.580;2022-07-21T07:13:36;19.90;99.90
4279;DHT22;2153;47.744;10.580;2022-07-21T07:16:03;19.90;99.90
4279;DHT22;2153;47.744;10.580;2022-07-21T07:18:30;19.80;99.90
4279;DHT22;2153;47.744;10.580;2022-07-21T07:20:59;19.80;99.90
4279;DHT22;2153;47.744;10.580;2022-07-21T07:23:25;19.70;99.90
4279;DHT22;2153;47.744;10.580;2022-07-21T07:25:52;19.70;99.90
4279;DHT22;2153;47.744;10.580;2022-07-21T07:28:19;19.70;99.90
4279;DHT22;2153;47.744;10.580;2022-07-21T07:30:46;19.60;99.90
4279;DHT22;2153;47.744;10.580;2022-07-21T07:33:14;19.60;99.90
4279;DHT22;2153;47.744;10.580;2022-07-21T07:35:40;19.60;99.90
4279;DHT22;2153;47.744;10.580;2022-07-21T07:38:12;19.60;99.90
4279;DHT22;2153;47.744;10.580;2022-07-21T07:40:39;19.60;99.90
4279;DHT22;2153;47.744;10.580;2022-07-21T07:43:06;19.60;99.90
4279;DHT22;2153;47.744;10.580;2022-07-21T07:45:33;19.60;99.90
4279;DHT22;2153;47.744;10.580;2022-07-21T07:48:00;19.60;99.90
4279;DHT22;2153;47.744;10.580;2022-07-21T07:50:27;19.60;99.90
4279;DHT22;2153;47.744;10.580;2022-07-21T07:52:54;19.70;99.90
4279;DHT22;2153;47.744;10.580;2022-07-21T07:55:22;19.70;99.90
4279;DHT22;2153;47.744;10.580;2022-07-21T07:57:49;19.70;99.90
4279;DHT22;2153;47.744;10.580;2022-07-21T08:00:17;19.70;99.90
4279;DHT22;2153;47.744;10.580;2022-07-21T08:02:44;19.70;99.90
4279;DHT22;2153;47.744;10.580;2022-07-21T08:05:12;19.80;99.90
4279;DHT22;2153;47.744;10.580;2022-07-21T08:07:40;19.90;99.90
4279;DHT22;2153;47.744;10.580;2022-07-21T08:10:09;19.90;99.90
4279;DHT22;2153;47.744;10.580;2022-07-21T08:12:39;19.90;99.90
4279;DHT22;2153;47.744;10.580;2022-07-21T08:15:07;20.00;99.90
4279;DHT22;2153;47.744;10.580;2022-07-21T08:17:35;20.00;99.90
4279;DHT22;2153;47.744;10.580;2022-07-21T08:20:02;20.00;99.90
4279;DHT22;2153;47.744;10.580;2022-07-21T08:22:29;20.10;99.90
4279;DHT22;2153;47.744;10.580;2022-07-21T08:24:56;20.30;99.90
4279;DHT22;2153;47.744;10.580;2022-07-21T08:27:23;20.40;99.90
4279;DHT22;2153;47.744;10.580;2022-07-21T08:29:51;20.50;99.90
4279;DHT22;2153;47.744;10.580;2022-07-21T08:32:18;20.60;99.90
4279;DHT22;2153;47.744;10.580;2022-07-21T08:34:45;20.60;99.90
4279;DHT22;2153;47.744;10.580;2022-07-21T08:37:12;20.70;99.90
4279;DHT22;2153;47.744;10.580;2022-07-21T08:39:39;20.80;99.90
4279;DHT22;2153;47.744;10.580;2022-07-21T08:42:07;20.90;99.90
4279;DHT22;2153;47.744;10.580;2022-07-21T08:44:34;20.90;99.90
4279;DHT22;2153;47.744;10.580;2022-07-21T08:47:04;21.00;99.90
4279;DHT22;2153;47.744;10.580;2022-07-21T08:49:32;21.00;99.90
4279;DHT22;2153;47.744;10.580;2022-07-21T08:52:00;21.00;99.90
4279;DHT22;2153;47.744;10.580;2022-07-21T08:54:26;21.00;99.90
4279;DHT22;2153;47.744;10.580;2022-07-21T08:56:53;21.00;99.90
4279;DHT22;2153;47.744;10.580;2022-07-21T08:59:21;21.00;99.90
4279;DHT22;2153;47.744;10.580;2022-07-21T09:01:48;20.90;99.90
4279;DHT22;2153;47.744;10.580;2022-07-21T09:04:27;20.80;99.90
4279;DHT22;2153;47.744;10.580;2022-07-21T09:06:56;20.70;99.90
4279;DHT22;2153;47.744;10.580;2022-07-21T09:09:24;20.70;99.90
4279;DHT22;2153;47.744;10.580;2022-07-21T09:11:52;20.70;99.90
4279;DHT22;2153;47.744;10.580;2022-07-21T09:14:20;20.70;99.90
4279;DHT22;2153;47.744;10.580;2022-07-21T09:16:50;20.70;99.90
4279;DHT22;2153;47.744;10.580;2022-07-21T09:19:19;20.60;99.90
4279;DHT22;2153;47.744;10.580;2022-07-21T09:21:48;20.50;99.90
4279;DHT22;2153;47.744;10.580;2022-07-21T09:24:18;20.60;99.90
4279;DHT22;2153;47.744;10.580;2022-07-21T09:27:07;20.60;99.90
4279;DHT22;2153;47.744;10.580;2022-07-21T09:29:37;20.50;99.90
4279;DHT22;2153;47.744;10.580;2022-07-21T09:32:13;20.60;99.90
4279;DHT22;2153;47.744;10.580;2022-07-21T09:34:41;20.50;99.90
4279;DHT22;2153;47.744;10.580;2022-07-21T09:37:09;20.50;99.90
4279;DHT22;2153;47.744;10.580;2022-07-21T09:39:44;20.50;99.90
4279;DHT22;2153;47.744;10.580;2022-07-21T09:42:29;20.50;99.90
4279;DHT22;2153;47.744;10.580;2022-07-21T09:45:00;20.50;99.90
4279;DHT22;2153;47.744;10.580;2022-07-21T09:47:30;20.50;99.90
4279;DHT22;2153;47.744;10.580;2022-07-21T09:49:57;20.60;99.90
4279;DHT22;2153;47.744;10.580;2022-07-21T09:52:27;20.60;99.90
4279;DHT22;2153;47.744;10.580;2022-07-21T09:54:57;20.70;99.90
4279;DHT22;2153;47.744;10.580;2022-07-21T09:57:24;20.70;99.90
4279;DHT22;2153;47.744;10.580;2022-07-21T09:59:52;20.80;99.90
4279;DHT22;2153;47.744;10.580;2022-07-21T10:02:20;20.90;99.90
4279;DHT22;2153;47.744;10.580;2022-07-21T10:04:56;20.90;99.90
4279;DHT22;2153;47.744;10.580;2022-07-21T10:07:23;21.00;99.90
4279;DHT22;2153;47.744;10.580;2022-07-21T10:09:52;21.00;99.90
4279;DHT22;2153;47.744;10.580;2022-07-21T10:12:19;21.00;99.90
4279;DHT22;2153;47.744;10.580;2022-07-21T10:14:47;21.10;99.90
4279;DHT22;2153;47.744;10.580;2022-07-21T10:17:14;21.10;99.90
4279;DHT22;2153;47.744;10.580;2022-07-21T10:19:48;21.10;99.90
4279;DHT22;2153;47.744;10.580;2022-07-21T10:22:23;21.20;99.90
4279;DHT22;2153;47.744;10.580;2022-07-21T10:24:53;21.20;99.90
4279;DHT22;2153;47.744;10.580;2022-07-21T10:27:20;21.20;99.90
4279;DHT22;2153;47.744;10.580;2022-07-21T10:29:55;21.30;99.90
4279;DHT22;2153;47.744;10.580;2022-07-21T10:32:25;21.40;99.90
4279;DHT22;2153;47.744;10.580;2022-07-21T10:34:53;21.50;99.90
4279;DHT22;2153;47.744;10.580;2022-07-21T10:37:45;21.60;99.90
4279;DHT22;2153;47.744;10.580;2022-07-21T10:40:37;21.60;99.90
4279;DHT22;2153;47.744;10.580;2022-07-21T10:43:38;21.50;99.90
4279;DHT22;2153;47.744;10.580;2022-07-21T10:46:34;21.50;99.90
4279;DHT22;2153;47.744;10.580;2022-07-21T10:49:03;21.50;99.90
4279;DHT22;2153;47.744;10.580;2022-07-21T10:51:32;21.60;99.90
4279;DHT22;2153;47.744;10.580;2022-07-21T10:54:23;21.70;99.90
4279;DHT22;2153;47.744;10.580;2022-07-21T10:57:26;21.80;99.90
4279;DHT22;2153;47.744;10.580;2022-07-21T11:00:22;21.80;99.90
4279;DHT22;2153;47.744;10.580;2022-07-21T11:02:52;22.00;99.90
4279;DHT22;2153;47.744;10.580;2022-07-21T11:05:20;22.10;99.90
4279;DHT22;2153;47.744;10.580;2022-07-21T11:08:12;22.20;99.90
4279;DHT22;2153;47.744;10.580;2022-07-21T11:10:40;22.10;99.90
4279;DHT22;2153;47.744;10.580;2022-07-21T11:13:09;22.10;99.90
4279;DHT22;2153;47.744;10.580;2022-07-21T11:15:48;22.10;99.90
4279;DHT22;2153;47.744;10.580;2022-07-21T11:18:18;22.10;99.90
4279;DHT22;2153;47.744;10.580;2022-07-21T11:21:08;22.10;99.90
4279;DHT22;2153;47.744;10.580;2022-07-21T11:23:41;22.10;99.90
4279;DHT22;2153;47.744;10.580;2022-07-21T11:26:09;22.10;99.90
4279;DHT22;2153;47.744;10.580;2022-07-21T11:28:38;22.10;99.90
4279;DHT22;2153;47.744;10.580;2022-07-21T11:31:10;22.10;99.90
4279;DHT22;2153;47.744;10.580;2022-07-21T11:33:38;22.20;99.90
4279;DHT22;2153;47.744;10.580;2022-07-21T11:36:06;22.30;99.90
4279;DHT22;2153;47.744;10.580;2022-07-21T11:38:33;22.20;99.90
4279;DHT22;2153;47.744;10.580;2022-07-21T11:41:14;22.20;99.90
4279;DHT22;2153;47.744;10.580;2022-07-21T11:43:43;22.30;99.90
4279;DHT22;2153;47.744;10.580;2022-07-21T11:46:11;22.40;99.90
4279;DHT22;2153;47.744;10.580;2022-07-21T11:48:38;22.50;99.90
4279;DHT22;2153;47.744;10.580;2022-07-21T11:51:05;22.60;99.90
4279;DHT22;2153;47.744;10.580;2022-07-21T11:53:33;22.60;99.90
4279;DHT22;2153;47.744;10.580;2022-07-21T11:56:00;22.70;99.90
4279;DHT22;2153;47.744;10.580;2022-07-21T11:58:27;22.80;99.90
4279;DHT22;2153;47.744;10.580;2022-07-21T12:01:08;22.90;99.90
4279;DHT22;2153;47.744;10.580;2022-07-21T12:03:35;23.10;99.90
4279;DHT22;2153;47.744;10.580;2022-07-21T12:06:12;23.10;99.90
4279;DHT22;2153;47.744;10.580;2022-07-21T12:08:40;23.20;99.90
4279;DHT22;2153;47.744;10.580;2022-07-21T12:11:08;23.00;99.90
4279;DHT22;2153;47.744;10.580;2022-07-21T12:13:58;23.00;99.90
4279;DHT22;2153;47.744;10.580;2022-07-21T12:16:28;23.00;99.90
4279;DHT22;2153;47.744;10.580;2022-07-21T12:19:11;23.20;99.90
4279;DHT22;2153;47.744;10.580;2022-07-21T12:21:44;23.50;99.90
4279;DHT22;2153;47.744;10.580;2022-07-21T12:24:11;23.50;99.90
4279;DHT22;2153;47.744;10.580;2022-07-21T12:26:38;23.60;99.90
4279;DHT22;2153;47.744;10.580;2022-07-21T12:29:05;23.80;99.90
4279;DHT22;2153;47.744;10.580;2022-07-21T12:31:35;23.80;99.90
4279;DHT22;2153;47.744;10.580;2022-07-21T12:34:11;23.70;99.90
4279;DHT22;2153;47.744;10.580;2022-07-21T12:36:38;23.80;99.90
4279;DHT22;2153;47.744;10.580;2022-07-21T12:39:16;23.90;99.90
4279;DHT22;2153;47.744;10.580;2022-07-21T12:42:05;23.90;99.90
4279;DHT22;2153;47.744;10.580;2022-07-21T12:44:32;24.00;99.90
4279;DHT22;2153;47.744;10.580;2022-07-21T12:47:14;24.00;99.90
4279;DHT22;2153;47.744;10.580;2022-07-21T12:49:55;23.60;99.90
4279;DHT22;2153;47.744;10.580;2022-07-21T12:52:23;23.50;99.90
4279;DHT22;2153;47.744;10.580;2022-07-21T12:54:50;23.20;99.90
4279;DHT22;2153;47.744;10.580;2022-07-21T12:57:16;23.30;99.90
4279;DHT22;2153;47.744;10.580;2022-07-21T12:59:43;22.90;99.90
4279;DHT22;2153;47.744;10.580;2022-07-21T13:02:10;23.00;99.90
4279;DHT22;2153;47.744;10.580;2022-07-21T13:04:38;23.20;99.90
4279;DHT22;2153;47.744;10.580;2022-07-21T13:07:05;23.40;99.90
4279;DHT22;2153;47.744;10.580;2022-07-21T13:09:32;23.60;99.90
4279;DHT22;2153;47.744;10.580;2022-07-21T13:11:59;23.60;99.90
4279;DHT22;2153;47.744;10.580;2022-07-21T13:14:25;23.50;99.90
4279;DHT22;2153;47.744;10.580;2022-07-21T13:16:52;23.60;99.90
4279;DHT22;2153;47.744;10.580;2022-07-21T13:19:22;23.70;99.90
4279;DHT22;2153;47.744;10.580;2022-07-21T13:21:51;23.80;99.90
4279;DHT22;2153;47.744;10.580;2022-07-21T13:24:18;24.20;99.90
4279;DHT22;2153;47.744;10.580;2022-07-21T13:26:45;24.70;99.90
4279;DHT22;2153;47.744;10.580;2022-07-21T13:29:12;25.00;99.90
4279;DHT22;2153;47.744;10.580;2022-07-21T13:31:39;25.20;99.90
4279;DHT22;2153;47.744;10.580;2022-07-21T13:34:06;25.50;99.90
4279;DHT22;2153;47.744;10.580;2022-07-21T13:36:35;25.70;99.90
4279;DHT22;2153;47.744;10.580;2022-07-21T13:39:03;25.60;99.90
4279;DHT22;2153;47.744;10.580;2022-07-21T13:41:30;25.40;99.90
4279;DHT22;2153;47.744;10.580;2022-07-21T13:43:58;25.30;99.90
4279;DHT22;2153;47.744;10.580;2022-07-21T13:46:26;25.40;99.90
4279;DHT22;2153;47.744;10.580;2022-07-21T13:48:53;25.10;99.90
4279;DHT22;2153;47.744;10.580;2022-07-21T13:51:21;25.20;99.90
4279;DHT22;2153;47.744;10.580;2022-07-21T13:53:49;25.00;99.90
4279;DHT22;2153;47.744;10.580;2022-07-21T13:56:18;25.30;99.90
4279;DHT22;2153;47.744;10.580;2022-07-21T13:58:45;25.40;99.90
4279;DHT22;2153;47.744;10.580;2022-07-21T14:01:13;25.60;99.90
4279;DHT22;2153;47.744;10.580;2022-07-21T14:03:40;25.90;99.90
4279;DHT22;2153;47.744;10.580;2022-07-21T14:06:07;26.30;99.90
4279;DHT22;2153;47.744;10.580;2022-07-21T14:08:35;26.60;99.90
4279;DHT22;2153;47.744;10.580;2022-07-21T14:11:02;26.90;99.90
4279;DHT22;2153;47.744;10.580;2022-07-21T14:13:30;26.90;99.90
4279;DHT22;2153;47.744;10.580;2022-07-21T14:15:57;26.70;99.90
4279;DHT22;2153;47.744;10.580;2022-07-21T14:18:24;26.60;99.90
4279;DHT22;2153;47.744;10.580;2022-07-21T14:20:51;26.40;99.90
4279;DHT22;2153;47.744;10.580;2022-07-21T14:23:18;26.40;99.90
4279;DHT22;2153;47.744;10.580;2022-07-21T14:28:14;26.60;99.90
4279;DHT22;2153;47.744;10.580;2022-07-21T14:30:42;26.50;99.90
4279;DHT22;2153;47.744;10.580;2022-07-21T14:33:09;26.50;99.90
4279;DHT22;2153;47.744;10.580;2022-07-21T14:35:36;26.40;99.90
4279;DHT22;2153;47.744;10.580;2022-07-21T14:38:03;26.50;99.90
4279;DHT22;2153;47.744;10.580;2022-07-21T14:40:30;26.40;99.90
4279;DHT22;2153;47.744;10.580;2022-07-21T14:42:57;26.30;99.90
4279;DHT22;2153;47.744;10.580;2022-07-21T14:45:24;26.10;99.90
4279;DHT22;2153;47.744;10.580;2022-07-21T14:47:54;26.30;99.90
4279;DHT22;2153;47.744;10.580;2022-07-21T14:50:22;26.50;99.90
4279;DHT22;2153;47.744;10.580;2022-07-21T14:52:50;26.90;99.90
4279;DHT22;2153;47.744;10.580;2022-07-21T14:55:17;27.40;99.90
4279;DHT22;2153;47.744;10.580;2022-07-21T14:57:45;27.30;99.90
4279;DHT22;2153;47.744;10.580;2022-07-21T15:00:13;27.10;99.90
4279;DHT22;2153;47.744;10.580;2022-07-21T15:02:40;27.00;99.90
4279;DHT22;2153;47.744;10.580;2022-07-21T15:05:08;27.10;99.90
4279;DHT22;2153;47.744;10.580;2022-07-21T15:07:35;27.10;99.90
4279;DHT22;2153;47.744;10.580;2022-07-21T15:10:02;27.30;99.90
4279;DHT22;2153;47.744;10.580;2022-07-21T15:12:29;27.20;99.90
4279;DHT22;2153;47.744;10.580;2022-07-21T15:14:56;27.10;99.90
4279;DHT22;2153;47.744;10.580;2022-07-21T15:17:23;27.20;99.90
4279;DHT22;2153;47.744;10.580;2022-07-21T15:19:50;26.80;99.90
4279;DHT22;2153;47.744;10.580;2022-07-21T15:22:18;26.70;99.90
4279;DHT22;2153;47.744;10.580;2022-07-21T15:24:44;26.30;99.90
4279;DHT22;2153;47.744;10.580;2022-07-21T15:27:11;26.40;99.90
4279;DHT22;2153;47.744;10.580;2022-07-21T15:29:38;26.50;99.90
4279;DHT22;2153;47.744;10.580;2022-07-21T15:32:05;26.50;99.90
4279;DHT22;2153;47.744;10.580;2022-07-21T15:34:32;26.60;99.90
4279;DHT22;2153;47.744;10.580;2022-07-21T15:36:59;26.40;99.90
4279;DHT22;2153;47.744;10.580;2022-07-21T15:39:27;26.50;99.90
4279;DHT22;2153;47.744;10.580;2022-07-21T15:41:53;26.70;99.90
4279;DHT22;2153;47.744;10.580;2022-07-21T15:44:20;26.40;99.90
4279;DHT22;2153;47.744;10.580;2022-07-21T15:46:48;26.30;99.90
4279;DHT22;2153;47.744;10.580;2022-07-21T15:49:15;26.40;99.90
4279;DHT22;2153;47.744;10.580;2022-07-21T15:51:43;26.50;99.90
4279;DHT22;2153;47.744;10.580;2022-07-21T15:54:10;25.60;99.90
4279;DHT22;2153;47.744;10.580;2022-07-21T15:56:38;25.10;99.90